sensor_id;sensor_type;location;lat;lon;timestamp;P1;durP1;ratioP1;P2;durP2;ratioP2
20480;SDS011;10399;50.754;3.366;2022-12-08T00:01:23;29.73;;;15.30;;
20480;SDS011;10399;50.754;3.366;2022-12-08T00:03:52;25.70;;;14.25;;
20480;SDS011;10399;50.754;3.366;2022-12-08T00:06:21;29.33;;;15.35;;
20480;SDS011;10399;50.754;3.366;2022-12-08T00:12:03;29.02;;;14.90;;
20480;SDS011;10399;50.754;3.366;2022-12-08T00:14:32;30.13;;;15.23;;
20480;SDS011;10399;50.754;3.366;2022-12-08T00:17:04;27.40;;;15.57;;
20480;SDS011;10399;50.754;3.366;2022-12-08T00:19:33;28.73;;;15.48;;
20480;SDS011;10399;50.754;3.366;2022-12-08T00:22:00;25.75;;;15.70;;
20480;SDS011;10399;50.754;3.366;2022-12-08T00:24:29;26.60;;;15.57;;
20480;SDS011;10399;50.754;3.366;2022-12-08T00:26:58;29.05;;;15.05;;
20480;SDS011;10399;50.754;3.366;2022-12-08T00:29:25;33.75;;;15.23;;
20480;SDS011;10399;50.754;3.366;2022-12-08T00:31:52;29.50;;;15.57;;
20480;SDS011;10399;50.754;3.366;2022-12-08T00:34:19;27.85;;;14.60;;
20480;SDS011;10399;50.754;3.366;2022-12-08T00:36:46;28.73;;;14.23;;
20480;SDS011;10399;50.754;3.366;2022-12-08T00:39:14;27.08;;;15.23;;
20480;SDS011;10399;50.754;3.366;2022-12-08T00:41:42;27.30;;;14.38;;
20480;SDS011;10399;50.754;3.366;2022-12-08T00:44:28;28.42;;;14.95;;
20480;SDS011;10399;50.754;3.366;2022-12-08T00:46:55;25.23;;;14.70;;
20480;SDS011;10399;50.754;3.366;2022-12-08T00:49:22;31.25;;;14.43;;
20480;SDS011;10399;50.754;3.366;2022-12-08T00:51:49;32.20;;;14.45;;
20480;SDS011;10399;50.754;3.366;2022-12-08T00:54:17;24.73;;;13.75;;
20480;SDS011;10399;50.754;3.366;2022-12-08T00:56:44;28.20;;;13.55;;
20480;SDS011;10399;50.754;3.366;2022-12-08T00:59:11;25.15;;;13.38;;
20480;SDS011;10399;50.754;3.366;2022-12-08T01:01:39;25.42;;;13.77;;
20480;SDS011;10399;50.754;3.366;2022-12-08T01:04:07;30.42;;;13.40;;
20480;SDS011;10399;50.754;3.366;2022-12-08T01:06:38;24.20;;;13.27;;
20480;SDS011;10399;50.754;3.366;2022-12-08T01:09:05;28.90;;;13.15;;
20480;SDS011;10399;50.754;3.366;2022-12-08T01:11:33;23.55;;;13.55;;
20480;SDS011;10399;50.754;3.366;2022-12-08T01:14:02;30.02;;;13.63;;
20480;SDS011;10399;50.754;3.366;2022-12-08T01:16:31;27.20;;;13.38;;
20480;SDS011;10399;50.754;3.366;2022-12-08T01:18:59;26.73;;;12.40;;
20480;SDS011;10399;50.754;3.366;2022-12-08T01:21:27;21.75;;;12.93;;
20480;SDS011;10399;50.754;3.366;2022-12-08T01:23:54;26.58;;;13.30;;
20480;SDS011;10399;50.754;3.366;2022-12-08T01:26:23;25.83;;;13.63;;
20480;SDS011;10399;50.754;3.366;2022-12-08T01:28:50;26.35;;;13.65;;
20480;SDS011;10399;50.754;3.366;2022-12-08T01:31:18;24.70;;;13.13;;
20480;SDS011;10399;50.754;3.366;2022-12-08T01:33:46;26.67;;;13.85;;
20480;SDS011;10399;50.754;3.366;2022-12-08T01:36:18;28.45;;;13.88;;
20480;SDS011;10399;50.754;3.366;2022-12-08T01:38:50;27.15;;;13.10;;
20480;SDS011;10399;50.754;3.366;2022-12-08T01:41:19;23.92;;;13.77;;
20480;SDS011;10399;50.754;3.366;2022-12-08T01:46:34;26.92;;;13.65;;
20480;SDS011;10399;50.754;3.366;2022-12-08T01:51:48;27.80;;;13.45;;
20480;SDS011;10399;50.754;3.366;2022-12-08T01:54:20;28.33;;;13.85;;
20480;SDS011;10399;50.754;3.366;2022-12-08T01:59:23;31.95;;;15.30;;
20480;SDS011;10399;50.754;3.366;2022-12-08T02:01:51;29.48;;;13.95;;
20480;SDS011;10399;50.754;3.366;2022-12-08T02:04:18;29.75;;;15.13;;
20480;SDS011;10399;50.754;3.366;2022-12-08T02:06:46;29.85;;;14.10;;
20480;SDS011;10399;50.754;3.366;2022-12-08T02:09:14;27.48;;;14.82;;
20480;SDS011;10399;50.754;3.366;2022-12-08T02:11:41;34.03;;;14.73;;
20480;SDS011;10399;50.754;3.366;2022-12-08T02:14:09;32.55;;;15.68;;
20480;SDS011;10399;50.754;3.366;2022-12-08T02:24:37;24.23;;;13.57;;
20480;SDS011;10399;50.754;3.366;2022-12-08T02:33:55;25.02;;;14.30;;
20480;SDS011;10399;50.754;3.366;2022-12-08T02:36:26;28.33;;;13.68;;
20480;SDS011;10399;50.754;3.366;2022-12-08T02:41:58;25.33;;;14.88;;
20480;SDS011;10399;50.754;3.366;2022-12-08T02:47:18;35.53;;;15.52;;
20480;SDS011;10399;50.754;3.366;2022-12-08T02:49:47;30.67;;;15.13;;
20480;SDS011;10399;50.754;3.366;2022-12-08T02:54:54;31.80;;;14.65;;
20480;SDS011;10399;50.754;3.366;2022-12-08T03:00:17;31.92;;;13.75;;
20480;SDS011;10399;50.754;3.366;2022-12-08T03:13:13;25.85;;;14.38;;
20480;SDS011;10399;50.754;3.366;2022-12-08T03:15:45;31.42;;;14.48;;
20480;SDS011;10399;50.754;3.366;2022-12-08T03:18:16;29.42;;;14.35;;
20480;SDS011;10399;50.754;3.366;2022-12-08T03:20:47;31.58;;;14.98;;
20480;SDS011;10399;50.754;3.366;2022-12-08T03:23:15;28.88;;;13.45;;
20480;SDS011;10399;50.754;3.366;2022-12-08T03:25:57;29.88;;;13.73;;
20480;SDS011;10399;50.754;3.366;2022-12-08T03:28:33;32.85;;;13.93;;
20480;SDS011;10399;50.754;3.366;2022-12-08T03:31:01;27.33;;;13.68;;
20480;SDS011;10399;50.754;3.366;2022-12-08T03:33:32;32.80;;;13.48;;
20480;SDS011;10399;50.754;3.366;2022-12-08T03:36:03;26.15;;;12.50;;
20480;SDS011;10399;50.754;3.366;2022-12-08T03:38:41;28.73;;;13.20;;
20480;SDS011;10399;50.754;3.366;2022-12-08T03:41:09;29.50;;;13.90;;
20480;SDS011;10399;50.754;3.366;2022-12-08T03:46:16;25.42;;;12.30;;
20480;SDS011;10399;50.754;3.366;2022-12-08T03:48:44;27.00;;;13.07;;
20480;SDS011;10399;50.754;3.366;2022-12-08T03:51:12;28.35;;;13.15;;
20480;SDS011;10399;50.754;3.366;2022-12-08T03:53:39;29.73;;;13.48;;
20480;SDS011;10399;50.754;3.366;2022-12-08T03:59:04;25.30;;;12.35;;
20480;SDS011;10399;50.754;3.366;2022-12-08T04:01:32;27.52;;;12.80;;
20480;SDS011;10399;50.754;3.366;2022-12-08T04:03:59;27.23;;;11.80;;
20480;SDS011;10399;50.754;3.366;2022-12-08T04:06:27;26.50;;;12.55;;
20480;SDS011;10399;50.754;3.366;2022-12-08T04:08:55;25.30;;;11.13;;
20480;SDS011;10399;50.754;3.366;2022-12-08T04:11:22;30.73;;;12.27;;
20480;SDS011;10399;50.754;3.366;2022-12-08T04:13:49;24.70;;;12.30;;
20480;SDS011;10399;50.754;3.366;2022-12-08T04:16:20;20.30;;;11.02;;
20480;SDS011;10399;50.754;3.366;2022-12-08T04:18:49;20.98;;;10.85;;
20480;SDS011;10399;50.754;3.366;2022-12-08T04:21:17;26.35;;;11.95;;
20480;SDS011;10399;50.754;3.366;2022-12-08T04:23:44;18.70;;;9.52;;
20480;SDS011;10399;50.754;3.366;2022-12-08T04:26:12;18.30;;;10.27;;
20480;SDS011;10399;50.754;3.366;2022-12-08T04:28:39;20.42;;;11.73;;
20480;SDS011;10399;50.754;3.366;2022-12-08T04:31:06;23.63;;;11.52;;
20480;SDS011;10399;50.754;3.366;2022-12-08T04:33:34;21.27;;;11.35;;
20480;SDS011;10399;50.754;3.366;2022-12-08T04:36:01;22.45;;;11.60;;
20480;SDS011;10399;50.754;3.366;2022-12-08T04:38:30;23.38;;;11.35;;
20480;SDS011;10399;50.754;3.366;2022-12-08T04:40:57;22.08;;;10.88;;
20480;SDS011;10399;50.754;3.366;2022-12-08T04:43:24;22.75;;;11.00;;
20480;SDS011;10399;50.754;3.366;2022-12-08T04:45:51;21.45;;;10.15;;
20480;SDS011;10399;50.754;3.366;2022-12-08T04:48:18;19.52;;;9.82;;
20480;SDS011;10399;50.754;3.366;2022-12-08T04:50:45;20.35;;;9.98;;
20480;SDS011;10399;50.754;3.366;2022-12-08T04:53:12;19.77;;;9.88;;
20480;SDS011;10399;50.754;3.366;2022-12-08T04:55:41;21.65;;;9.68;;
20480;SDS011;10399;50.754;3.366;2022-12-08T04:58:13;21.25;;;9.95;;
20480;SDS011;10399;50.754;3.366;2022-12-08T05:00:42;18.60;;;8.98;;
20480;SDS011;10399;50.754;3.366;2022-12-08T05:03:09;18.00;;;9.57;;
20480;SDS011;10399;50.754;3.366;2022-12-08T05:05:36;20.85;;;9.70;;
20480;SDS011;10399;50.754;3.366;2022-12-08T05:08:04;20.13;;;9.98;;
20480;SDS011;10399;50.754;3.366;2022-12-08T05:10:31;16.63;;;9.15;;
20480;SDS011;10399;50.754;3.366;2022-12-08T05:12:58;20.00;;;9.70;;
20480;SDS011;10399;50.754;3.366;2022-12-08T05:15:26;17.70;;;9.68;;
20480;SDS011;10399;50.754;3.366;2022-12-08T05:17:54;19.90;;;8.82;;
20480;SDS011;10399;50.754;3.366;2022-12-08T05:20:20;23.10;;;9.93;;
20480;SDS011;10399;50.754;3.366;2022-12-08T05:22:48;19.30;;;9.40;;
20480;SDS011;10399;50.754;3.366;2022-12-08T05:25:15;20.98;;;9.77;;
20480;SDS011;10399;50.754;3.366;2022-12-08T05:27:42;18.33;;;9.55;;
20480;SDS011;10399;50.754;3.366;2022-12-08T05:30:09;20.15;;;9.55;;
20480;SDS011;10399;50.754;3.366;2022-12-08T05:32:36;25.90;;;10.43;;
20480;SDS011;10399;50.754;3.366;2022-12-08T05:35:04;24.98;;;10.88;;
20480;SDS011;10399;50.754;3.366;2022-12-08T05:37:31;18.42;;;9.50;;
20480;SDS011;10399;50.754;3.366;2022-12-08T05:39:58;17.92;;;10.38;;
20480;SDS011;10399;50.754;3.366;2022-12-08T05:42:26;22.90;;;10.18;;
20480;SDS011;10399;50.754;3.366;2022-12-08T05:44:53;23.38;;;10.85;;
20480;SDS011;10399;50.754;3.366;2022-12-08T05:47:20;24.35;;;10.63;;
20480;SDS011;10399;50.754;3.366;2022-12-08T05:49:47;22.17;;;11.93;;
20480;SDS011;10399;50.754;3.366;2022-12-08T05:52:14;24.83;;;10.93;;
20480;SDS011;10399;50.754;3.366;2022-12-08T05:54:42;23.65;;;11.98;;
20480;SDS011;10399;50.754;3.366;2022-12-08T05:57:09;25.20;;;11.75;;
20480;SDS011;10399;50.754;3.366;2022-12-08T05:59:37;22.92;;;12.23;;
20480;SDS011;10399;50.754;3.366;2022-12-08T06:02:04;24.45;;;12.48;;
20480;SDS011;10399;50.754;3.366;2022-12-08T06:04:31;22.13;;;12.55;;
20480;SDS011;10399;50.754;3.366;2022-12-08T06:06:58;32.67;;;13.52;;
20480;SDS011;10399;50.754;3.366;2022-12-08T06:09:25;23.90;;;12.02;;
20480;SDS011;10399;50.754;3.366;2022-12-08T06:11:53;25.20;;;12.35;;
20480;SDS011;10399;50.754;3.366;2022-12-08T06:14:20;25.35;;;13.20;;
20480;SDS011;10399;50.754;3.366;2022-12-08T06:16:48;28.92;;;12.40;;
20480;SDS011;10399;50.754;3.366;2022-12-08T06:19:15;27.27;;;12.70;;
20480;SDS011;10399;50.754;3.366;2022-12-08T06:21:42;24.92;;;13.10;;
20480;SDS011;10399;50.754;3.366;2022-12-08T06:24:09;29.65;;;13.18;;
20480;SDS011;10399;50.754;3.366;2022-12-08T06:26:37;28.05;;;13.35;;
20480;SDS011;10399;50.754;3.366;2022-12-08T06:29:06;28.63;;;14.10;;
20480;SDS011;10399;50.754;3.366;2022-12-08T06:31:33;27.00;;;13.13;;
20480;SDS011;10399;50.754;3.366;2022-12-08T06:34:01;24.05;;;12.32;;
20480;SDS011;10399;50.754;3.366;2022-12-08T06:36:31;26.65;;;12.23;;
20480;SDS011;10399;50.754;3.366;2022-12-08T06:38:59;25.23;;;13.27;;
20480;SDS011;10399;50.754;3.366;2022-12-08T06:41:27;27.13;;;13.02;;
20480;SDS011;10399;50.754;3.366;2022-12-08T06:43:55;27.00;;;12.88;;
20480;SDS011;10399;50.754;3.366;2022-12-08T06:46:24;27.08;;;13.07;;
20480;SDS011;10399;50.754;3.366;2022-12-08T06:48:52;23.15;;;11.93;;
20480;SDS011;10399;50.754;3.366;2022-12-08T06:51:19;26.17;;;12.50;;
20480;SDS011;10399;50.754;3.366;2022-12-08T06:53:48;31.77;;;13.20;;
20480;SDS011;10399;50.754;3.366;2022-12-08T06:56:15;25.85;;;13.00;;
20480;SDS011;10399;50.754;3.366;2022-12-08T06:58:45;21.77;;;13.18;;
20480;SDS011;10399;50.754;3.366;2022-12-08T07:01:18;25.35;;;13.38;;
20480;SDS011;10399;50.754;3.366;2022-12-08T07:03:45;24.92;;;13.10;;
20480;SDS011;10399;50.754;3.366;2022-12-08T07:06:22;22.42;;;12.82;;
20480;SDS011;10399;50.754;3.366;2022-12-08T07:08:50;28.33;;;13.27;;
20480;SDS011;10399;50.754;3.366;2022-12-08T07:11:17;33.20;;;14.75;;
20480;SDS011;10399;50.754;3.366;2022-12-08T07:13:47;27.65;;;14.20;;
20480;SDS011;10399;50.754;3.366;2022-12-08T07:16:15;32.25;;;14.95;;
20480;SDS011;10399;50.754;3.366;2022-12-08T07:18:42;31.73;;;14.32;;
20480;SDS011;10399;50.754;3.366;2022-12-08T07:21:10;35.67;;;14.95;;
20480;SDS011;10399;50.754;3.366;2022-12-08T07:23:40;30.55;;;15.27;;
20480;SDS011;10399;50.754;3.366;2022-12-08T07:26:09;29.88;;;15.77;;
20480;SDS011;10399;50.754;3.366;2022-12-08T07:28:38;31.45;;;15.68;;
20480;SDS011;10399;50.754;3.366;2022-12-08T07:31:06;32.03;;;15.80;;
20480;SDS011;10399;50.754;3.366;2022-12-08T07:33:41;31.70;;;16.10;;
20480;SDS011;10399;50.754;3.366;2022-12-08T07:36:09;33.58;;;15.88;;
20480;SDS011;10399;50.754;3.366;2022-12-08T07:38:37;37.90;;;16.00;;
20480;SDS011;10399;50.754;3.366;2022-12-08T07:41:04;31.52;;;15.00;;
20480;SDS011;10399;50.754;3.366;2022-12-08T07:43:36;36.20;;;16.63;;
20480;SDS011;10399;50.754;3.366;2022-12-08T07:46:03;32.92;;;16.15;;
20480;SDS011;10399;50.754;3.366;2022-12-08T07:48:30;36.80;;;15.98;;
20480;SDS011;10399;50.754;3.366;2022-12-08T07:51:01;28.33;;;15.63;;
20480;SDS011;10399;50.754;3.366;2022-12-08T07:53:29;32.70;;;16.15;;
20480;SDS011;10399;50.754;3.366;2022-12-08T07:55:56;35.70;;;15.32;;
20480;SDS011;10399;50.754;3.366;2022-12-08T07:58:24;32.30;;;16.23;;
20480;SDS011;10399;50.754;3.366;2022-12-08T08:00:52;30.00;;;14.57;;
20480;SDS011;10399;50.754;3.366;2022-12-08T08:03:19;32.72;;;15.70;;
20480;SDS011;10399;50.754;3.366;2022-12-08T08:05:47;34.70;;;15.73;;
20480;SDS011;10399;50.754;3.366;2022-12-08T08:08:15;31.25;;;14.95;;
20480;SDS011;10399;50.754;3.366;2022-12-08T08:10:43;34.08;;;15.30;;
20480;SDS011;10399;50.754;3.366;2022-12-08T08:13:12;28.50;;;14.45;;
20480;SDS011;10399;50.754;3.366;2022-12-08T08:15:41;33.60;;;15.45;;
20480;SDS011;10399;50.754;3.366;2022-12-08T08:18:08;32.28;;;16.15;;
20480;SDS011;10399;50.754;3.366;2022-12-08T08:20:36;30.35;;;15.10;;
20480;SDS011;10399;50.754;3.366;2022-12-08T08:23:03;30.02;;;14.90;;
20480;SDS011;10399;50.754;3.366;2022-12-08T08:25:30;28.10;;;15.57;;
20480;SDS011;10399;50.754;3.366;2022-12-08T08:27:57;33.30;;;15.32;;
20480;SDS011;10399;50.754;3.366;2022-12-08T08:30:25;37.40;;;15.80;;
20480;SDS011;10399;50.754;3.366;2022-12-08T08:32:52;38.58;;;14.73;;
20480;SDS011;10399;50.754;3.366;2022-12-08T08:35:19;34.70;;;14.50;;
20480;SDS011;10399;50.754;3.366;2022-12-08T08:37:46;34.35;;;16.02;;
20480;SDS011;10399;50.754;3.366;2022-12-08T08:40:15;34.17;;;14.85;;
20480;SDS011;10399;50.754;3.366;2022-12-08T08:42:43;33.67;;;16.50;;
20480;SDS011;10399;50.754;3.366;2022-12-08T08:45:10;29.83;;;15.07;;
20480;SDS011;10399;50.754;3.366;2022-12-08T08:47:36;30.13;;;14.55;;
20480;SDS011;10399;50.754;3.366;2022-12-08T08:50:04;33.97;;;15.50;;
20480;SDS011;10399;50.754;3.366;2022-12-08T08:52:31;38.45;;;16.20;;
20480;SDS011;10399;50.754;3.366;2022-12-08T08:54:58;33.95;;;15.38;;
20480;SDS011;10399;50.754;3.366;2022-12-08T08:57:26;33.67;;;13.85;;
20480;SDS011;10399;50.754;3.366;2022-12-08T08:59:53;30.65;;;14.30;;
20480;SDS011;10399;50.754;3.366;2022-12-08T09:02:21;34.97;;;15.52;;
20480;SDS011;10399;50.754;3.366;2022-12-08T09:04:48;33.83;;;15.48;;
20480;SDS011;10399;50.754;3.366;2022-12-08T09:07:15;31.10;;;15.25;;
20480;SDS011;10399;50.754;3.366;2022-12-08T09:09:42;33.60;;;14.80;;
20480;SDS011;10399;50.754;3.366;2022-12-08T09:12:09;32.15;;;14.35;;
20480;SDS011;10399;50.754;3.366;2022-12-08T09:14:37;35.50;;;14.60;;
20480;SDS011;10399;50.754;3.366;2022-12-08T09:17:05;24.58;;;13.45;;
20480;SDS011;10399;50.754;3.366;2022-12-08T09:19:33;28.33;;;14.63;;
20480;SDS011;10399;50.754;3.366;2022-12-08T09:22:00;27.75;;;14.55;;
20480;SDS011;10399;50.754;3.366;2022-12-08T09:24:27;31.42;;;15.55;;
20480;SDS011;10399;50.754;3.366;2022-12-08T09:26:55;29.98;;;15.07;;
20480;SDS011;10399;50.754;3.366;2022-12-08T09:29:23;31.10;;;14.52;;
20480;SDS011;10399;50.754;3.366;2022-12-08T09:31:52;29.00;;;15.50;;
20480;SDS011;10399;50.754;3.366;2022-12-08T09:34:20;26.55;;;14.05;;
20480;SDS011;10399;50.754;3.366;2022-12-08T09:36:48;26.77;;;14.93;;
20480;SDS011;10399;50.754;3.366;2022-12-08T09:39:15;34.65;;;15.65;;
20480;SDS011;10399;50.754;3.366;2022-12-08T09:41:43;32.22;;;15.20;;
20480;SDS011;10399;50.754;3.366;2022-12-08T09:44:24;36.17;;;14.73;;
20480;SDS011;10399;50.754;3.366;2022-12-08T09:46:56;27.25;;;14.13;;
20480;SDS011;10399;50.754;3.366;2022-12-08T09:49:38;30.70;;;13.85;;
20480;SDS011;10399;50.754;3.366;2022-12-08T09:52:44;25.27;;;13.63;;
20480;SDS011;10399;50.754;3.366;2022-12-08T09:55:14;30.25;;;13.15;;
20480;SDS011;10399;50.754;3.366;2022-12-08T09:57:53;21.20;;;11.80;;
20480;SDS011;10399;50.754;3.366;2022-12-08T10:00:26;21.05;;;10.95;;
20480;SDS011;10399;50.754;3.366;2022-12-08T10:02:54;21.95;;;11.43;;
20480;SDS011;10399;50.754;3.366;2022-12-08T10:05:21;19.70;;;10.52;;
20480;SDS011;10399;50.754;3.366;2022-12-08T10:08:11;20.60;;;10.23;;
20480;SDS011;10399;50.754;3.366;2022-12-08T10:10:53;20.30;;;10.57;;
20480;SDS011;10399;50.754;3.366;2022-12-08T10:18:44;19.70;;;9.50;;
20480;SDS011;10399;50.754;3.366;2022-12-08T10:21:15;27.65;;;9.57;;
20480;SDS011;10399;50.754;3.366;2022-12-08T10:23:45;18.98;;;10.10;;
20480;SDS011;10399;50.754;3.366;2022-12-08T10:26:17;25.73;;;10.20;;
20480;SDS011;10399;50.754;3.366;2022-12-08T10:28:46;18.35;;;9.98;;
20480;SDS011;10399;50.754;3.366;2022-12-08T10:31:14;22.55;;;10.27;;
20480;SDS011;10399;50.754;3.366;2022-12-08T10:33:42;20.15;;;9.52;;
20480;SDS011;10399;50.754;3.366;2022-12-08T10:36:10;17.77;;;8.93;;
20480;SDS011;10399;50.754;3.366;2022-12-08T10:38:37;20.33;;;8.82;;
20480;SDS011;10399;50.754;3.366;2022-12-08T10:43:42;17.58;;;9.30;;
20480;SDS011;10399;50.754;3.366;2022-12-08T10:46:16;15.93;;;8.40;;
20480;SDS011;10399;50.754;3.366;2022-12-08T10:48:49;14.60;;;7.90;;
20480;SDS011;10399;50.754;3.366;2022-12-08T10:51:39;15.55;;;7.20;;
20480;SDS011;10399;50.754;3.366;2022-12-08T10:54:27;19.30;;;8.25;;
20480;SDS011;10399;50.754;3.366;2022-12-08T10:56:59;15.13;;;7.95;;
20480;SDS011;10399;50.754;3.366;2022-12-08T10:59:26;14.25;;;7.78;;
20480;SDS011;10399;50.754;3.366;2022-12-08T11:01:55;15.80;;;7.57;;
20480;SDS011;10399;50.754;3.366;2022-12-08T11:04:35;14.18;;;7.47;;
20480;SDS011;10399;50.754;3.366;2022-12-08T11:07:04;14.73;;;7.15;;
20480;SDS011;10399;50.754;3.366;2022-12-08T11:12:16;20.50;;;7.40;;
20480;SDS011;10399;50.754;3.366;2022-12-08T11:14:46;11.82;;;6.78;;
20480;SDS011;10399;50.754;3.366;2022-12-08T11:17:41;17.98;;;7.53;;
20480;SDS011;10399;50.754;3.366;2022-12-08T11:20:18;19.15;;;6.57;;
20480;SDS011;10399;50.754;3.366;2022-12-08T11:22:52;16.58;;;6.47;;
20480;SDS011;10399;50.754;3.366;2022-12-08T11:25:21;16.92;;;6.68;;
20480;SDS011;10399;50.754;3.366;2022-12-08T11:27:55;14.68;;;6.55;;
20480;SDS011;10399;50.754;3.366;2022-12-08T11:30:31;13.05;;;6.40;;
20480;SDS011;10399;50.754;3.366;2022-12-08T11:33:19;15.32;;;6.80;;
20480;SDS011;10399;50.754;3.366;2022-12-08T11:35:50;13.20;;;6.30;;
20480;SDS011;10399;50.754;3.366;2022-12-08T11:38:23;19.10;;;6.13;;
20480;SDS011;10399;50.754;3.366;2022-12-08T11:40:56;17.40;;;6.78;;
20480;SDS011;10399;50.754;3.366;2022-12-08T11:43:26;15.02;;;7.00;;
20480;SDS011;10399;50.754;3.366;2022-12-08T11:45:58;15.25;;;7.07;;
20480;SDS011;10399;50.754;3.366;2022-12-08T11:48:35;17.25;;;6.88;;
20480;SDS011;10399;50.754;3.366;2022-12-08T11:51:32;15.52;;;6.10;;
20480;SDS011;10399;50.754;3.366;2022-12-08T11:56:40;16.85;;;6.28;;
20480;SDS011;10399;50.754;3.366;2022-12-08T11:59:33;11.73;;;6.45;;
20480;SDS011;10399;50.754;3.366;2022-12-08T12:02:10;11.48;;;5.40;;
20480;SDS011;10399;50.754;3.366;2022-12-08T12:13:04;16.02;;;6.10;;
20480;SDS011;10399;50.754;3.366;2022-12-08T12:18:40;13.10;;;5.38;;
20480;SDS011;10399;50.754;3.366;2022-12-08T12:29:22;16.60;;;5.88;;
20480;SDS011;10399;50.754;3.366;2022-12-08T12:31:57;15.43;;;5.70;;
20480;SDS011;10399;50.754;3.366;2022-12-08T12:34:34;15.40;;;6.20;;
20480;SDS011;10399;50.754;3.366;2022-12-08T12:37:06;14.38;;;6.05;;
20480;SDS011;10399;50.754;3.366;2022-12-08T12:39:52;12.65;;;5.75;;
20480;SDS011;10399;50.754;3.366;2022-12-08T12:42:39;12.75;;;5.90;;
20480;SDS011;10399;50.754;3.366;2022-12-08T12:47:48;10.70;;;5.55;;
20480;SDS011;10399;50.754;3.366;2022-12-08T13:03:36;10.88;;;5.15;;
20480;SDS011;10399;50.754;3.366;2022-12-08T13:06:09;12.10;;;5.40;;
20480;SDS011;10399;50.754;3.366;2022-12-08T13:08:41;11.70;;;5.60;;
20480;SDS011;10399;50.754;3.366;2022-12-08T13:11:17;11.05;;;5.25;;
20480;SDS011;10399;50.754;3.366;2022-12-08T13:13:54;10.65;;;5.13;;
20480;SDS011;10399;50.754;3.366;2022-12-08T13:16:29;9.55;;;5.10;;
20480;SDS011;10399;50.754;3.366;2022-12-08T13:18:59;12.02;;;5.30;;
20480;SDS011;10399;50.754;3.366;2022-12-08T13:21:34;10.75;;;5.25;;
20480;SDS011;10399;50.754;3.366;2022-12-08T13:26:49;10.35;;;5.05;;
20480;SDS011;10399;50.754;3.366;2022-12-08T13:29:33;18.02;;;5.20;;
20480;SDS011;10399;50.754;3.366;2022-12-08T13:32:02;12.27;;;4.93;;
20480;SDS011;10399;50.754;3.366;2022-12-08T13:34:48;9.40;;;4.28;;
20480;SDS011;10399;50.754;3.366;2022-12-08T13:40:21;11.70;;;4.75;;
20480;SDS011;10399;50.754;3.366;2022-12-08T13:45:30;10.38;;;4.70;;
20480;SDS011;10399;50.754;3.366;2022-12-08T13:51:39;10.50;;;3.78;;
20480;SDS011;10399;50.754;3.366;2022-12-08T13:54:35;5.82;;;3.10;;
20480;SDS011;10399;50.754;3.366;2022-12-08T13:57:29;5.55;;;2.70;;
20480;SDS011;10399;50.754;3.366;2022-12-08T14:00:00;8.38;;;3.13;;
20480;SDS011;10399;50.754;3.366;2022-12-08T14:02:34;9.25;;;3.25;;
20480;SDS011;10399;50.754;3.366;2022-12-08T14:05:12;6.75;;;3.25;;
20480;SDS011;10399;50.754;3.366;2022-12-08T14:07:46;6.68;;;3.42;;
20480;SDS011;10399;50.754;3.366;2022-12-08T14:10:21;5.45;;;3.00;;
20480;SDS011;10399;50.754;3.366;2022-12-08T14:12:56;11.23;;;3.58;;
20480;SDS011;10399;50.754;3.366;2022-12-08T14:15:27;6.97;;;3.55;;
20480;SDS011;10399;50.754;3.366;2022-12-08T14:18:03;8.48;;;4.45;;
20480;SDS011;10399;50.754;3.366;2022-12-08T14:20:31;11.57;;;4.40;;
20480;SDS011;10399;50.754;3.366;2022-12-08T14:23:20;10.25;;;4.25;;
20480;SDS011;10399;50.754;3.366;2022-12-08T14:25:46;9.25;;;4.82;;
20480;SDS011;10399;50.754;3.366;2022-12-08T14:28:14;12.32;;;4.47;;
20480;SDS011;10399;50.754;3.366;2022-12-08T14:30:41;9.32;;;4.53;;
20480;SDS011;10399;50.754;3.366;2022-12-08T14:33:12;11.43;;;4.38;;
20480;SDS011;10399;50.754;3.366;2022-12-08T14:35:48;9.05;;;4.65;;
20480;SDS011;10399;50.754;3.366;2022-12-08T14:38:18;8.32;;;4.57;;
20480;SDS011;10399;50.754;3.366;2022-12-08T14:40:47;11.45;;;4.93;;
20480;SDS011;10399;50.754;3.366;2022-12-08T14:43:26;11.65;;;4.50;;
20480;SDS011;10399;50.754;3.366;2022-12-08T14:45:59;13.07;;;5.00;;
20480;SDS011;10399;50.754;3.366;2022-12-08T14:56:07;12.00;;;4.55;;
20480;SDS011;10399;50.754;3.366;2022-12-08T14:58:46;12.35;;;5.40;;
20480;SDS011;10399;50.754;3.366;2022-12-08T15:01:20;13.93;;;5.38;;
20480;SDS011;10399;50.754;3.366;2022-12-08T15:03:48;14.20;;;5.05;;
20480;SDS011;10399;50.754;3.366;2022-12-08T15:06:17;12.32;;;5.18;;
20480;SDS011;10399;50.754;3.366;2022-12-08T15:08:52;10.23;;;5.35;;
20480;SDS011;10399;50.754;3.366;2022-12-08T15:11:34;13.07;;;6.20;;
20480;SDS011;10399;50.754;3.366;2022-12-08T15:14:01;16.73;;;5.93;;
20480;SDS011;10399;50.754;3.366;2022-12-08T15:21:44;8.77;;;5.25;;
20480;SDS011;10399;50.754;3.366;2022-12-08T15:24:13;10.70;;;5.80;;
20480;SDS011;10399;50.754;3.366;2022-12-08T15:26:42;9.05;;;5.47;;
20480;SDS011;10399;50.754;3.366;2022-12-08T15:29:18;9.00;;;5.22;;
20480;SDS011;10399;50.754;3.366;2022-12-08T15:31:55;12.98;;;5.45;;
20480;SDS011;10399;50.754;3.366;2022-12-08T15:34:23;10.55;;;5.50;;
20480;SDS011;10399;50.754;3.366;2022-12-08T15:36:51;19.00;;;5.72;;
20480;SDS011;10399;50.754;3.366;2022-12-08T15:41:56;11.30;;;5.80;;
20480;SDS011;10399;50.754;3.366;2022-12-08T15:44:25;9.73;;;5.20;;
20480;SDS011;10399;50.754;3.366;2022-12-08T15:46:52;12.07;;;5.45;;
20480;SDS011;10399;50.754;3.366;2022-12-08T15:49:20;11.98;;;5.22;;
20480;SDS011;10399;50.754;3.366;2022-12-08T15:51:50;15.38;;;4.68;;
20480;SDS011;10399;50.754;3.366;2022-12-08T15:54:30;8.85;;;4.15;;
20480;SDS011;10399;50.754;3.366;2022-12-08T15:56:57;8.77;;;3.92;;
20480;SDS011;10399;50.754;3.366;2022-12-08T15:59:44;6.75;;;3.58;;
20480;SDS011;10399;50.754;3.366;2022-12-08T16:02:12;8.45;;;3.08;;
20480;SDS011;10399;50.754;3.366;2022-12-08T16:04:47;8.52;;;3.17;;
20480;SDS011;10399;50.754;3.366;2022-12-08T16:07:34;8.93;;;3.40;;
20480;SDS011;10399;50.754;3.366;2022-12-08T16:10:03;6.32;;;3.22;;
20480;SDS011;10399;50.754;3.366;2022-12-08T16:12:32;9.38;;;3.88;;
20480;SDS011;10399;50.754;3.366;2022-12-08T16:15:39;13.55;;;4.05;;
20480;SDS011;10399;50.754;3.366;2022-12-08T16:18:28;5.80;;;3.95;;
20480;SDS011;10399;50.754;3.366;2022-12-08T16:20:58;7.55;;;4.40;;
20480;SDS011;10399;50.754;3.366;2022-12-08T16:23:45;6.03;;;4.53;;
20480;SDS011;10399;50.754;3.366;2022-12-08T16:26:16;9.13;;;4.80;;
20480;SDS011;10399;50.754;3.366;2022-12-08T16:29:06;10.10;;;6.25;;
20480;SDS011;10399;50.754;3.366;2022-12-08T16:31:35;9.57;;;5.78;;
20480;SDS011;10399;50.754;3.366;2022-12-08T16:34:03;10.30;;;4.93;;
20480;SDS011;10399;50.754;3.366;2022-12-08T16:36:30;9.80;;;5.45;;
20480;SDS011;10399;50.754;3.366;2022-12-08T16:38:57;12.38;;;5.68;;
20480;SDS011;10399;50.754;3.366;2022-12-08T16:41:24;9.00;;;5.85;;
20480;SDS011;10399;50.754;3.366;2022-12-08T16:44:11;10.70;;;5.53;;
20480;SDS011;10399;50.754;3.366;2022-12-08T16:46:38;15.82;;;6.55;;
20480;SDS011;10399;50.754;3.366;2022-12-08T16:49:06;13.65;;;6.45;;
20480;SDS011;10399;50.754;3.366;2022-12-08T16:51:34;13.60;;;6.88;;
20480;SDS011;10399;50.754;3.366;2022-12-08T16:54:01;13.27;;;6.82;;
20480;SDS011;10399;50.754;3.366;2022-12-08T16:56:29;15.07;;;9.05;;
20480;SDS011;10399;50.754;3.366;2022-12-08T16:58:59;17.77;;;10.18;;